createdAt,value
2019-04-23T00:00:26.499Z,43.79
2019-04-23T00:01:38.583Z,44.17
2019-04-23T00:02:30.111Z,44.45
2019-04-23T00:03:30.563Z,43.40
2019-04-23T00:04:24.006Z,44.45
2019-04-23T00:05:35.457Z,43.79
2019-04-23T00:06:53.857Z,43.50
2019-04-23T00:07:44.524Z,43.59
2019-04-23T00:08:37.735Z,43.59
2019-04-23T00:09:30.383Z,44.36
2019-04-23T00:10:30.299Z,43.88
2019-04-23T00:12:40.588Z,44.55
2019-04-23T00:13:29.326Z,44.34
2019-04-23T00:14:29.890Z,44.34
2019-04-23T00:15:23.372Z,44.53
2019-04-23T00:17:33.477Z,44.43
2019-04-23T00:19:26.169Z,44.34
2019-04-23T00:20:25.823Z,43.86
2019-04-23T00:21:26.641Z,44.24
2019-04-23T00:22:31.253Z,44.34
2019-04-23T00:23:28.190Z,43.95
2019-04-23T00:24:46.666Z,44.53
2019-04-23T00:26:33.230Z,45.01
2019-04-23T00:27:35.561Z,45.58
2019-04-23T00:28:37.402Z,45.10
2019-04-23T00:29:32.773Z,45.01
2019-04-23T00:30:41.454Z,45.10
2019-04-23T00:31:34.991Z,45.01
2019-04-23T00:32:30.268Z,44.81
2019-04-23T00:34:37.799Z,45.87
2019-04-23T00:35:25.867Z,45.58
2019-04-23T00:36:32.595Z,45.67
2019-04-23T00:38:33.645Z,45.01
2019-04-23T00:39:23.709Z,45.10
2019-04-23T00:40:25.921Z,45.87
2019-04-23T00:41:33.357Z,45.48
2019-04-23T00:42:29.598Z,45.27
2019-04-23T00:43:27.292Z,44.89
2019-04-23T00:44:37.721Z,45.77
2019-04-23T00:45:33.304Z,45.65
2019-04-23T00:46:31.486Z,45.65
2019-04-23T00:47:33.001Z,45.65
2019-04-23T00:48:36.401Z,45.46
2019-04-23T00:49:28.974Z,45.75
2019-04-23T00:50:30.267Z,45.65
2019-04-23T00:51:34.680Z,45.75
2019-04-23T00:52:26.441Z,45.65
2019-04-23T00:53:37.142Z,45.75
2019-04-23T00:54:28.819Z,45.08
2019-04-23T00:55:39.761Z,44.79
2019-04-23T00:57:34.297Z,45.75
2019-04-23T00:58:36.657Z,44.60
2019-04-23T00:59:28.224Z,44.79
2019-04-23T01:00:33.711Z,44.60
2019-04-23T01:01:31.942Z,44.70
2019-04-23T01:02:33.576Z,44.70
2019-04-23T01:03:21.557Z,44.51
2019-04-23T01:04:27.452Z,44.51
2019-04-23T01:06:23.654Z,45.08
2019-04-23T01:07:24.641Z,45.65
2019-04-23T01:08:27.926Z,45.37
2019-04-23T01:09:29.316Z,45.75
2019-04-23T01:10:29.168Z,45.37
2019-04-23T01:11:22.848Z,45.15
2019-04-23T01:12:31.735Z,44.98
2019-04-23T01:13:36.294Z,44.77
2019-04-23T01:14:31.590Z,45.06
2019-04-23T01:15:32.871Z,44.51
2019-04-23T01:16:22.915Z,44.96
2019-04-23T01:17:32.247Z,44.41
2019-04-23T01:19:31.577Z,44.87
2019-04-23T01:20:28.960Z,45.06
2019-04-23T01:21:05.734Z,45.06
2019-04-23T01:22:06.412Z,45.25
2019-04-23T01:23:05.596Z,45.63
2019-04-23T01:24:10.277Z,45.53
2019-04-23T01:25:13.422Z,45.53
2019-04-23T01:26:23.903Z,45.43
2019-04-23T01:28:35.554Z,44.96
2019-04-23T01:29:39.183Z,45.82
2019-04-23T01:30:31.592Z,45.82
2019-04-23T01:31:48.006Z,45.92
2019-04-23T01:32:31.446Z,45.72
2019-04-23T01:34:34.613Z,46.01
2019-04-23T01:35:50.996Z,45.82
2019-04-23T01:37:35.228Z,45.92
2019-04-23T01:38:35.099Z,46.01
2019-04-23T01:39:28.019Z,46.39
2019-04-23T01:40:31.904Z,46.20
2019-04-23T01:41:33.692Z,45.92
2019-04-23T01:42:35.705Z,46.30
2019-04-23T01:43:35.074Z,46.01
2019-04-23T01:44:38.689Z,46.20
2019-04-23T01:45:27.285Z,46.68
2019-04-23T01:46:37.304Z,46.30
2019-04-23T01:47:35.503Z,46.68
2019-04-23T01:48:34.259Z,47.25
2019-04-23T01:49:36.997Z,47.80
2019-04-23T01:50:50.133Z,47.52
2019-04-23T01:51:33.876Z,47.32
2019-04-23T01:53:37.101Z,47.80
2019-04-23T01:54:30.830Z,47.32
2019-04-23T01:56:28.452Z,47.52
2019-04-23T01:57:30.811Z,47.42
2019-04-23T01:59:31.698Z,47.52
2019-04-23T02:01:32.825Z,48.18
2019-04-23T02:02:38.602Z,48.18
2019-04-23T02:03:49.973Z,48.08
2019-04-23T02:04:28.656Z,47.71
2019-04-23T02:06:31.482Z,48.18
2019-04-23T02:07:39.276Z,48.08
2019-04-23T02:08:26.166Z,47.99
2019-04-23T02:09:35.731Z,48.08
2019-04-23T02:10:42.633Z,47.61
2019-04-23T02:11:37.381Z,47.71
2019-04-23T02:12:33.390Z,47.71
2019-04-23T02:13:38.354Z,48.18
2019-04-23T02:14:29.059Z,48.28
2019-04-23T02:15:32.017Z,48.37
2019-04-23T02:16:33.865Z,48.08
2019-04-23T02:17:36.338Z,48.47
2019-04-23T02:18:30.435Z,48.47
2019-04-23T02:19:29.364Z,48.75
2019-04-23T02:21:35.229Z,48.85
2019-04-23T02:22:38.196Z,48.66
2019-04-23T02:23:32.775Z,49.33
2019-04-23T02:24:39.622Z,48.85
2019-04-23T02:26:30.959Z,48.57
2019-04-23T02:27:36.318Z,48.92
2019-04-23T02:28:34.093Z,49.04
2019-04-23T02:32:39.864Z,49.02
2019-04-23T02:33:44.538Z,49.23
2019-04-23T02:36:40.520Z,48.73
2019-04-23T02:38:45.775Z,49.11
2019-04-23T02:39:46.498Z,49.13
2019-04-23T02:40:47.125Z,49.11
2019-04-23T02:41:41.358Z,49.21
2019-04-23T02:43:00.871Z,49.21
2019-04-23T02:43:26.042Z,49.13
2019-04-23T02:44:31.841Z,49.11
2019-04-23T02:45:43.966Z,49.21
2019-04-23T02:46:33.536Z,49.11
2019-04-23T02:48:44.367Z,49.78
2019-04-23T02:49:54.964Z,50.16
2019-04-23T02:51:35.148Z,50.26
2019-04-23T02:54:46.650Z,51.02
2019-04-23T02:56:49.228Z,50.45
2019-04-23T02:57:35.591Z,50.54
2019-04-23T02:58:43.989Z,50.54
2019-04-23T03:00:04.274Z,50.73
2019-04-23T03:00:40.017Z,50.54
2019-04-23T03:03:42.328Z,51.28
2019-04-23T03:06:38.999Z,50.83
2019-04-23T03:07:45.922Z,51.37
2019-04-23T03:08:39.423Z,51.47
2019-04-23T03:12:37.744Z,51.95
2019-04-23T03:14:43.736Z,51.66
2019-04-23T03:15:52.640Z,51.76
2019-04-23T03:17:36.472Z,51.66
2019-04-23T03:19:37.989Z,51.85
2019-04-23T03:20:59.504Z,51.95
2019-04-23T03:21:44.612Z,51.66
2019-04-23T03:22:49.502Z,51.85
2019-04-23T03:23:47.224Z,51.95
2019-04-23T03:24:44.108Z,52.04
2019-04-23T03:25:31.315Z,51.95
2019-04-23T03:36:18.302Z,51.76
2019-04-23T03:37:00.670Z,52.14
2019-04-23T03:37:40.764Z,52.14
2019-04-23T03:39:55.091Z,51.95
2019-04-23T03:40:27.655Z,51.85
2019-04-23T03:42:42.639Z,52.23
2019-04-23T03:44:45.007Z,52.33
2019-04-23T03:47:32.024Z,53.09
2019-04-23T03:50:35.400Z,52.71
2019-04-23T03:51:36.574Z,53.19
2019-04-23T03:53:43.153Z,53.09
2019-04-23T03:56:45.230Z,53.09
2019-04-23T03:58:41.400Z,53.19
2019-04-23T04:00:37.258Z,52.90
2019-04-23T04:02:48.498Z,52.90
2019-04-23T04:04:10.749Z,52.90
2019-04-23T04:05:42.523Z,53.00
2019-04-23T04:09:47.966Z,53.47
2019-04-23T04:10:54.974Z,53.56
2019-04-23T04:11:25.779Z,53.44
2019-04-23T04:12:34.889Z,53.92
2019-04-23T04:14:38.394Z,53.64
2019-04-23T04:15:51.017Z,53.47
2019-04-23T04:16:36.512Z,53.25
2019-04-23T04:18:41.086Z,53.35
2019-04-23T04:19:47.877Z,53.73
2019-04-23T04:21:33.798Z,53.73
2019-04-23T04:22:54.471Z,53.64
2019-04-23T04:23:43.474Z,54.30
2019-04-23T04:24:36.946Z,53.64
2019-04-23T04:26:44.355Z,54.02
2019-04-23T04:28:38.426Z,54.04
2019-04-23T04:30:38.448Z,54.14
2019-04-23T04:31:42.484Z,54.78
2019-04-23T04:32:36.625Z,54.02
2019-04-23T04:35:27.352Z,54.78
2019-04-23T04:36:45.850Z,54.49
2019-04-23T04:37:56.367Z,54.78
2019-04-23T04:38:40.573Z,54.78
2019-04-23T04:39:35.190Z,55.07
2019-04-23T04:41:31.190Z,54.49
2019-04-23T04:42:59.181Z,54.59
2019-04-23T04:45:45.134Z,54.59
2019-04-23T04:48:40.284Z,54.39
2019-04-23T04:49:42.584Z,54.11
2019-04-23T04:50:31.358Z,54.21
2019-04-23T04:51:37.661Z,53.83
2019-04-23T04:52:41.183Z,54.02
2019-04-23T04:54:23.062Z,54.24
2019-04-23T04:55:36.272Z,54.33
2019-04-23T04:57:36.507Z,53.56
2019-04-23T04:58:43.404Z,53.85
2019-04-23T04:59:40.033Z,53.76
2019-04-23T05:00:44.036Z,53.76
2019-04-23T05:01:30.216Z,53.85
2019-04-23T05:03:26.957Z,54.14
2019-04-23T05:04:37.901Z,54.33
2019-04-23T05:06:39.399Z,53.66
2019-04-23T05:07:34.065Z,54.04
2019-04-23T05:09:43.823Z,53.28
2019-04-23T05:10:43.256Z,53.41
2019-04-23T05:11:38.651Z,52.90
2019-04-23T05:12:34.925Z,53.12
2019-04-23T05:13:41.172Z,53.21
2019-04-23T05:14:35.390Z,52.92
2019-04-23T05:15:35.518Z,52.26
2019-04-23T05:16:37.070Z,52.36
2019-04-23T05:17:32.501Z,52.26
2019-04-23T05:18:34.660Z,51.88
2019-04-23T05:22:33.703Z,51.52
2019-04-23T05:23:28.122Z,50.76
2019-04-23T05:24:31.719Z,50.12
2019-04-23T05:25:25.483Z,49.64
2019-04-23T05:26:29.252Z,49.26
2019-04-23T05:27:28.346Z,49.38
2019-04-23T05:28:29.955Z,48.90
2019-04-23T05:29:19.984Z,48.07
2019-04-23T05:30:36.368Z,47.87
2019-04-23T05:31:23.167Z,47.30
2019-04-23T05:32:26.465Z,46.53
2019-04-23T05:34:24.276Z,46.15
2019-04-23T05:37:33.489Z,46.08
2019-04-23T05:38:35.925Z,45.79
2019-04-23T05:39:32.003Z,45.43
2019-04-23T05:40:37.121Z,45.24
2019-04-23T05:42:26.079Z,44.67
2019-04-23T05:43:27.912Z,44.57
2019-04-23T05:44:33.799Z,44.67
2019-04-23T05:45:30.081Z,44.67
2019-04-23T05:47:27.362Z,44.09
2019-04-23T05:48:23.439Z,44.48
2019-04-23T05:49:24.785Z,44.67
2019-04-23T05:50:39.233Z,45.05
2019-04-23T05:51:31.138Z,45.05
2019-04-23T05:52:31.275Z,45.22
2019-04-23T05:53:27.014Z,45.60
2019-04-23T05:54:26.584Z,45.60
2019-04-23T05:55:32.343Z,45.51
2019-04-23T05:56:30.811Z,45.60
2019-04-23T05:57:20.059Z,45.53
2019-04-23T05:58:30.078Z,45.81
2019-04-23T05:59:24.710Z,45.15
2019-04-23T06:00:34.427Z,44.48
2019-04-23T06:02:26.585Z,44.95
2019-04-23T06:03:42.068Z,45.53
2019-04-23T06:05:25.022Z,45.98
2019-04-23T06:06:52.417Z,45.79
2019-04-23T06:07:42.261Z,46.01
2019-04-23T06:08:38.474Z,45.53
2019-04-23T06:09:26.460Z,45.26
2019-04-23T06:10:27.218Z,44.86
2019-04-23T06:11:37.072Z,44.69
2019-04-23T06:12:26.984Z,44.69
2019-04-23T06:13:26.040Z,44.40
2019-04-23T06:14:28.460Z,43.73
2019-04-23T06:15:29.022Z,43.95
2019-04-23T06:16:32.766Z,43.27
2019-04-23T06:17:43.083Z,42.63
2019-04-23T06:18:30.503Z,42.17
2019-04-23T06:19:21.309Z,41.96
2019-04-23T06:20:28.207Z,42.14
2019-04-23T06:21:34.241Z,42.14
2019-04-23T06:22:28.977Z,42.24
2019-04-23T06:23:36.554Z,41.88
2019-04-23T06:24:28.415Z,41.60
2019-04-23T06:25:39.999Z,41.57
2019-04-23T06:27:27.430Z,41.21
2019-04-23T06:28:27.752Z,41.60
2019-04-23T06:29:37.635Z,41.86
2019-04-23T06:30:35.294Z,42.05
2019-04-23T06:31:31.205Z,42.44
2019-04-23T06:32:25.856Z,41.97
2019-04-23T06:33:25.962Z,42.14
2019-04-23T06:35:47.079Z,42.65
2019-04-23T06:36:25.661Z,42.82
2019-04-23T06:37:25.805Z,42.60
2019-04-23T06:39:28.548Z,43.49
2019-04-23T06:40:27.715Z,43.59
2019-04-23T06:41:34.513Z,43.20
2019-04-23T06:42:30.762Z,43.18
2019-04-23T06:43:24.328Z,43.59
2019-04-23T06:44:25.617Z,43.30
2019-04-23T06:45:26.051Z,43.30
2019-04-23T06:46:33.666Z,43.13
2019-04-23T06:47:36.107Z,42.46
2019-04-23T06:48:32.094Z,42.63
2019-04-23T06:49:30.492Z,42.74
2019-04-23T06:50:27.174Z,42.65
2019-04-23T06:51:28.226Z,42.65
2019-04-23T06:53:21.470Z,42.07
2019-04-23T06:54:25.697Z,42.29
2019-04-23T06:55:33.809Z,42.55
2019-04-23T06:56:26.916Z,42.55
2019-04-23T06:57:22.326Z,42.46
2019-04-23T06:58:32.385Z,42.63
2019-04-23T06:59:29.342Z,43.20
2019-04-23T07:00:27.885Z,43.39
2019-04-23T07:01:30.196Z,44.45
2019-04-23T07:02:30.608Z,44.35
2019-04-23T07:03:35.899Z,44.73
2019-04-23T07:04:29.021Z,43.41
2019-04-23T07:05:27.627Z,42.86
2019-04-23T07:07:44.959Z,42.00
2019-04-23T07:08:39.918Z,42.29
2019-04-23T07:09:22.671Z,42.47
2019-04-23T07:10:28.346Z,42.02
2019-04-23T07:11:28.656Z,41.54
2019-04-23T07:12:35.121Z,41.83
2019-04-23T07:13:34.600Z,41.73
2019-04-23T07:14:30.803Z,41.44
2019-04-23T07:15:38.045Z,41.54
2019-04-23T07:16:21.561Z,42.02
2019-04-23T07:17:21.339Z,41.25
2019-04-23T07:18:27.708Z,41.35
2019-04-23T07:20:28.675Z,42.10
2019-04-23T07:21:22.005Z,42.65
2019-04-23T07:22:21.692Z,42.94
2019-04-23T07:23:29.977Z,43.01
2019-04-23T07:24:21.523Z,43.60
2019-04-23T07:25:29.551Z,44.56
2019-04-23T07:27:37.851Z,43.80
2019-04-23T07:28:29.002Z,43.90
2019-04-23T07:29:27.180Z,43.23
2019-04-23T07:30:38.352Z,42.84
2019-04-23T07:31:44.551Z,42.57
2019-04-23T07:32:29.115Z,42.47
2019-04-23T07:33:27.905Z,42.57
2019-04-23T07:34:25.811Z,42.57
2019-04-23T07:35:24.496Z,42.38
2019-04-23T07:36:32.411Z,42.40
2019-04-23T07:37:22.275Z,42.38
2019-04-23T07:38:32.764Z,42.10
2019-04-23T07:41:32.231Z,41.83
2019-04-23T07:43:24.981Z,41.94
2019-04-23T07:44:35.731Z,41.39
2019-04-23T07:47:40.116Z,41.46
2019-04-23T07:48:34.193Z,41.63
2019-04-23T07:49:23.433Z,42.02
2019-04-23T07:50:38.183Z,41.56
2019-04-23T07:51:27.718Z,41.46
2019-04-23T07:52:41.103Z,41.66
2019-04-23T07:53:22.958Z,42.04
2019-04-23T07:56:24.104Z,41.63
2019-04-23T07:58:23.447Z,41.56
2019-04-23T07:59:25.299Z,41.27
2019-04-23T08:00:34.458Z,41.54
2019-04-23T08:01:18.344Z,41.75
2019-04-23T08:02:28.900Z,41.67
2019-04-23T08:03:21.055Z,41.58
2019-04-23T08:04:31.744Z,40.70
2019-04-23T08:05:32.007Z,40.79
2019-04-23T08:06:21.760Z,40.62
2019-04-23T08:07:28.271Z,40.52
2019-04-23T08:08:28.642Z,40.43
2019-04-23T08:09:25.567Z,40.43
2019-04-23T08:10:31.765Z,40.72
2019-04-23T08:11:34.344Z,40.14
2019-04-23T08:12:32.019Z,40.31
2019-04-23T08:13:37.936Z,40.91
2019-04-23T08:14:26.421Z,41.10
2019-04-23T08:15:30.954Z,41.29
2019-04-23T08:17:26.205Z,40.83
2019-04-23T08:18:29.284Z,40.55
2019-04-23T08:19:35.234Z,40.43
2019-04-23T08:20:23.037Z,40.43
2019-04-23T08:22:28.792Z,41.10
2019-04-23T08:23:25.643Z,41.94
2019-04-23T08:24:16.788Z,42.13
2019-04-23T08:25:27.254Z,42.35
2019-04-23T08:26:38.029Z,41.67
2019-04-23T08:27:22.673Z,41.58
2019-04-23T08:28:38.192Z,41.87
2019-04-23T08:29:19.947Z,41.58
2019-04-23T08:30:17.369Z,41.39
2019-04-23T08:31:32.075Z,41.85
2019-04-23T08:32:19.035Z,41.77
2019-04-23T08:33:24.854Z,41.60
2019-04-23T08:34:32.501Z,41.00
2019-04-23T08:35:19.962Z,41.39
2019-04-23T08:36:29.443Z,41.29
2019-04-23T08:37:36.450Z,41.00
2019-04-23T08:39:28.672Z,41.41
2019-04-23T08:41:26.961Z,41.00
2019-04-23T08:42:39.632Z,40.73
2019-04-23T08:44:27.394Z,40.93
2019-04-23T08:46:33.044Z,41.02
2019-04-23T08:47:23.250Z,41.02
2019-04-23T08:49:29.573Z,40.28
2019-04-23T08:50:27.545Z,39.68
2019-04-23T08:51:38.899Z,39.81
2019-04-23T08:52:37.005Z,39.70
2019-04-23T08:53:37.572Z,39.12
2019-04-23T08:54:37.001Z,39.51
2019-04-23T08:56:38.650Z,38.56
2019-04-23T08:57:22.691Z,38.37
2019-04-23T08:58:38.060Z,38.18
2019-04-23T08:59:33.069Z,38.56
2019-04-23T09:00:24.765Z,38.66
2019-04-23T09:01:27.553Z,38.56
2019-04-23T09:02:35.964Z,38.49
2019-04-23T09:04:23.637Z,38.85
2019-04-23T09:05:34.247Z,38.41
2019-04-23T09:06:21.687Z,37.02
2019-04-23T09:07:28.071Z,37.34
2019-04-23T09:08:29.506Z,37.79
2019-04-23T09:09:27.486Z,38.10
2019-04-23T09:10:28.233Z,37.81
2019-04-23T09:11:38.560Z,37.24
2019-04-23T09:12:32.092Z,37.35
2019-04-23T09:14:20.556Z,36.52
2019-04-23T09:15:31.595Z,36.60
2019-04-23T09:16:24.624Z,36.79
2019-04-23T09:17:28.507Z,35.75
2019-04-23T09:18:26.195Z,35.30
2019-04-23T09:19:41.322Z,34.42
2019-04-23T09:20:34.284Z,34.80
2019-04-23T09:21:21.368Z,34.69
2019-04-23T09:23:28.354Z,34.13
2019-04-23T09:24:29.534Z,34.32
2019-04-23T09:25:29.976Z,33.97
2019-04-23T09:26:22.287Z,33.00
2019-04-23T09:27:31.601Z,33.66
2019-04-23T09:28:34.527Z,33.29
2019-04-23T09:29:30.642Z,33.20
2019-04-23T09:31:56.478Z,33.84
2019-04-23T09:33:32.513Z,32.99
2019-04-23T09:34:31.284Z,33.89
2019-04-23T09:35:27.837Z,32.44
2019-04-23T09:36:27.478Z,32.52
2019-04-23T09:37:40.545Z,31.49
2019-04-23T09:38:39.651Z,32.04
2019-04-23T09:40:32.149Z,31.78
2019-04-23T09:42:32.281Z,33.68
2019-04-23T09:44:50.784Z,32.52
2019-04-23T09:45:35.802Z,33.00
2019-04-23T09:46:24.344Z,33.22
2019-04-23T09:48:17.755Z,32.09
2019-04-23T09:49:29.128Z,31.89
2019-04-23T09:51:27.335Z,31.44
2019-04-23T09:53:27.912Z,31.13
2019-04-23T09:54:37.822Z,31.54
2019-04-23T09:55:32.735Z,31.51
2019-04-23T09:56:22.383Z,32.78
2019-04-23T09:57:17.105Z,32.43
2019-04-23T09:58:18.140Z,32.54
2019-04-23T10:00:31.424Z,32.64
2019-04-23T10:01:27.844Z,32.56
2019-04-23T10:02:20.236Z,32.75
2019-04-23T10:03:10.675Z,33.89
2019-04-23T10:04:07.431Z,33.68
2019-04-23T10:05:11.090Z,33.39
2019-04-23T10:06:04.287Z,33.58
2019-04-23T10:07:11.268Z,34.03
2019-04-23T10:08:06.635Z,34.42
2019-04-23T10:09:01.437Z,34.78
2019-04-23T10:09:57.379Z,35.46
2019-04-23T10:10:57.481Z,35.36
2019-04-23T10:11:56.404Z,35.27
2019-04-23T10:12:57.992Z,35.56
2019-04-23T10:13:56.672Z,35.36
2019-04-23T10:15:05.704Z,35.85
2019-04-23T10:15:58.053Z,36.11
2019-04-23T10:16:57.937Z,36.60
2019-04-23T10:17:56.454Z,36.99
2019-04-23T10:18:57.442Z,36.31
2019-04-23T10:19:56.338Z,37.26
2019-04-23T10:20:56.562Z,37.46
2019-04-23T10:21:57.505Z,37.06
2019-04-23T10:22:56.732Z,37.26
2019-04-23T10:23:57.121Z,38.10
2019-04-23T10:24:57.137Z,38.39
2019-04-23T10:25:56.419Z,38.68
2019-04-23T10:26:57.727Z,37.81
2019-04-23T10:28:01.188Z,37.91
2019-04-23T10:28:56.623Z,38.28
2019-04-23T10:29:56.265Z,38.59
2019-04-23T10:30:56.584Z,38.20
2019-04-23T10:31:57.598Z,38.39
2019-04-23T10:32:57.746Z,38.29
2019-04-23T10:33:57.793Z,38.20
2019-04-23T10:35:06.699Z,38.59
2019-04-23T10:36:02.637Z,38.20
2019-04-23T10:36:57.539Z,38.68
2019-04-23T10:38:03.669Z,38.59
2019-04-23T10:39:04.936Z,38.68
2019-04-23T10:39:59.219Z,38.66
2019-04-23T10:40:56.289Z,39.04
2019-04-23T10:41:57.614Z,39.74
2019-04-23T10:42:57.695Z,39.93
2019-04-23T10:43:56.688Z,39.76
2019-04-23T10:45:10.831Z,39.74
2019-04-23T10:46:15.436Z,39.83
2019-04-23T10:47:27.138Z,38.97
2019-04-23T10:48:32.735Z,39.09
2019-04-23T10:49:50.861Z,38.89
2019-04-23T10:50:27.352Z,38.89
2019-04-23T10:51:30.528Z,38.60
2019-04-23T10:52:53.612Z,39.06
2019-04-23T10:53:39.935Z,39.45
2019-04-23T10:54:34.286Z,38.60
2019-04-23T10:55:25.949Z,38.12
2019-04-23T10:56:27.228Z,38.04
2019-04-23T10:57:22.607Z,38.51
2019-04-23T10:58:22.876Z,38.02
2019-04-23T10:59:34.194Z,37.85
2019-04-23T11:00:23.845Z,38.62
2019-04-23T11:01:37.233Z,37.68
2019-04-23T11:03:45.284Z,37.87
2019-04-23T11:04:44.760Z,36.81
2019-04-23T11:05:29.195Z,37.08
2019-04-23T11:06:32.525Z,38.14
2019-04-23T11:07:30.792Z,38.16
2019-04-23T11:08:23.953Z,37.39
2019-04-23T11:09:44.447Z,37.12
2019-04-23T11:10:22.046Z,36.61
2019-04-23T11:11:27.609Z,35.85
2019-04-23T11:12:37.095Z,36.83
2019-04-23T11:13:40.914Z,37.13
2019-04-23T11:14:25.368Z,36.06
2019-04-23T11:15:38.391Z,37.25
2019-04-23T11:16:46.028Z,36.27
2019-04-23T11:17:35.514Z,35.78
2019-04-23T11:18:34.407Z,36.65
2019-04-23T11:19:34.637Z,36.46
2019-04-23T11:20:30.252Z,35.88
2019-04-23T11:21:28.241Z,36.09
2019-04-23T11:22:42.681Z,37.17
2019-04-23T11:23:22.420Z,35.22
2019-04-23T11:24:41.969Z,35.05
2019-04-23T11:26:31.879Z,35.34
2019-04-23T11:27:32.675Z,35.22
2019-04-23T11:28:25.732Z,35.48
2019-04-23T11:29:34.367Z,35.71
2019-04-23T11:30:36.474Z,34.36
2019-04-23T11:31:33.330Z,34.45
2019-04-23T11:33:19.902Z,33.87
2019-04-23T11:35:31.181Z,33.95
2019-04-23T11:37:39.250Z,35.21
2019-04-23T11:39:32.554Z,35.38
2019-04-23T11:41:45.673Z,35.19
2019-04-23T11:42:33.164Z,35.86
2019-04-23T11:44:28.832Z,36.35
2019-04-23T11:44:56.470Z,35.67
2019-04-23T11:45:36.754Z,36.85
2019-04-23T11:46:41.209Z,35.67
2019-04-23T11:48:02.381Z,35.59
2019-04-23T11:50:39.674Z,35.40
2019-04-23T11:53:27.811Z,35.11
2019-04-23T11:54:24.152Z,34.94
2019-04-23T11:56:51.558Z,35.32
2019-04-23T11:59:31.299Z,34.94
2019-04-23T12:00:33.700Z,34.74
2019-04-23T12:01:42.205Z,34.74
2019-04-23T12:02:26.840Z,34.16
2019-04-23T12:03:17.793Z,34.55
2019-04-23T12:04:28.786Z,34.26
2019-04-23T12:05:41.318Z,34.26
2019-04-23T12:06:23.615Z,34.53
2019-04-23T12:07:22.918Z,35.02
2019-04-23T12:08:36.744Z,35.11
2019-04-23T12:09:34.961Z,35.22
2019-04-23T12:10:29.108Z,34.16
2019-04-23T12:11:52.336Z,33.97
2019-04-23T12:12:28.027Z,34.06
2019-04-23T12:13:30.167Z,34.56
2019-04-23T12:14:35.142Z,34.06
2019-04-23T12:15:37.931Z,33.95
2019-04-23T12:16:34.365Z,34.44
2019-04-23T12:18:38.736Z,34.38
2019-04-23T12:20:28.649Z,34.84
2019-04-23T12:21:29.912Z,34.84
2019-04-23T12:23:31.701Z,35.63
2019-04-23T12:24:42.055Z,35.53
2019-04-23T12:26:35.542Z,35.63
2019-04-23T12:28:30.150Z,34.87
2019-04-23T12:29:31.920Z,35.05
2019-04-23T12:30:42.091Z,34.56
2019-04-23T12:31:26.443Z,35.03
2019-04-23T12:33:31.729Z,35.22
2019-04-23T12:34:28.418Z,35.42
2019-04-23T12:36:30.552Z,35.78
2019-04-23T12:37:33.491Z,35.86
2019-04-23T12:38:21.892Z,36.65
2019-04-23T12:39:27.082Z,36.85
2019-04-23T12:41:21.150Z,36.94
2019-04-23T12:42:43.568Z,37.04
2019-04-23T12:43:19.025Z,36.17
2019-04-23T12:44:25.464Z,36.65
2019-04-23T12:46:26.440Z,36.48
2019-04-23T12:47:37.701Z,36.94
2019-04-23T12:49:49.039Z,36.65
2019-04-23T12:51:38.500Z,36.94
2019-04-23T12:52:25.293Z,37.50
2019-04-23T12:53:36.195Z,37.70
2019-04-23T12:54:35.641Z,36.93
2019-04-23T12:56:34.464Z,36.94
2019-04-23T12:57:28.735Z,36.46
2019-04-23T12:58:26.258Z,36.36
2019-04-23T12:59:23.242Z,36.73
2019-04-23T13:00:29.039Z,36.65
2019-04-23T13:01:25.689Z,36.38
2019-04-23T13:02:33.107Z,36.27
2019-04-23T13:03:25.419Z,37.15
2019-04-23T13:04:26.159Z,36.85
2019-04-23T13:05:31.743Z,37.33
2019-04-23T13:06:23.657Z,38.02
2019-04-23T13:07:36.792Z,37.73
2019-04-23T13:09:35.036Z,38.29
2019-04-23T13:10:36.712Z,38.20
2019-04-23T13:11:30.085Z,38.01
2019-04-23T13:12:38.190Z,37.52
2019-04-23T13:13:35.191Z,37.54
2019-04-23T13:14:25.215Z,37.13
2019-04-23T13:15:22.751Z,38.31
2019-04-23T13:16:33.016Z,37.04
2019-04-23T13:17:29.704Z,37.52
2019-04-23T13:18:23.600Z,37.13
2019-04-23T13:19:37.383Z,36.65
2019-04-23T13:20:23.551Z,36.67
2019-04-23T13:21:45.006Z,36.75
2019-04-23T13:22:31.844Z,35.88
2019-04-23T13:23:22.156Z,36.38
2019-04-23T13:24:27.513Z,36.38
2019-04-23T13:25:33.263Z,36.65
2019-04-23T13:26:08.986Z,37.13
2019-04-23T13:27:29.035Z,36.57
2019-04-23T13:28:24.545Z,36.57
2019-04-23T13:29:34.450Z,36.46
2019-04-23T13:30:32.569Z,37.33
2019-04-23T13:31:18.108Z,38.29
2019-04-23T13:32:50.277Z,37.04
2019-04-23T13:34:23.296Z,36.85
2019-04-23T13:35:43.607Z,37.02
2019-04-23T13:36:23.321Z,37.43
2019-04-23T13:37:33.645Z,37.23
2019-04-23T13:39:24.469Z,36.85
2019-04-23T13:40:37.395Z,37.13
2019-04-23T13:41:28.954Z,37.04
2019-04-23T13:42:33.705Z,37.33
2019-04-23T13:43:30.190Z,37.13
2019-04-23T13:44:29.326Z,37.13
2019-04-23T13:45:47.482Z,37.43
2019-04-23T13:46:17.829Z,37.23
2019-04-23T13:47:43.430Z,37.23
2019-04-23T13:48:16.696Z,36.75
2019-04-23T13:49:26.092Z,37.91
2019-04-23T13:50:37.502Z,37.81
2019-04-23T13:52:49.438Z,37.13
2019-04-23T13:53:38.403Z,36.94
2019-04-23T13:54:42.042Z,37.52
2019-04-23T13:55:16.550Z,37.52
2019-04-23T13:56:25.242Z,37.23
2019-04-23T13:58:23.303Z,37.12
2019-04-23T13:59:30.538Z,37.31
2019-04-23T14:00:42.260Z,37.02
2019-04-23T14:01:30.910Z,37.52
2019-04-23T14:02:34.448Z,37.71
2019-04-23T14:03:30.743Z,37.62
2019-04-23T14:04:32.445Z,38.18
2019-04-23T14:05:35.799Z,37.60
2019-04-23T14:06:43.440Z,37.33
2019-04-23T14:07:30.334Z,37.41
2019-04-23T14:08:33.530Z,37.04
2019-04-23T14:09:34.352Z,37.21
2019-04-23T14:10:29.908Z,37.31
2019-04-23T14:12:22.603Z,37.33
2019-04-23T14:13:37.079Z,37.02
2019-04-23T14:14:34.528Z,37.12
2019-04-23T14:15:36.302Z,37.31
2019-04-23T14:16:29.695Z,38.28
2019-04-23T14:17:47.062Z,38.18
2019-04-23T14:19:16.269Z,37.50
2019-04-23T14:20:21.827Z,37.21
2019-04-23T14:22:43.502Z,37.60
2019-04-23T14:23:39.642Z,37.02
2019-04-23T14:24:50.713Z,37.41
2019-04-23T14:25:18.751Z,37.50
2019-04-23T14:28:30.791Z,37.25
2019-04-23T14:29:21.578Z,37.23
2019-04-23T14:30:29.961Z,37.43
2019-04-23T14:31:17.474Z,37.13
2019-04-23T14:32:23.235Z,37.33
2019-04-23T14:33:26.698Z,37.12
2019-04-23T14:34:17.817Z,37.23
2019-04-23T14:35:25.736Z,36.94
2019-04-23T14:36:26.997Z,37.04
2019-04-23T14:40:26.443Z,37.13
2019-04-23T14:41:23.632Z,36.94
2019-04-23T14:42:24.732Z,37.13
2019-04-23T14:43:25.700Z,37.81
2019-04-23T14:44:20.191Z,37.23
2019-04-23T14:45:42.638Z,37.60
2019-04-23T14:47:40.231Z,37.89
2019-04-23T14:48:39.154Z,38.37
2019-04-23T14:49:19.260Z,38.49
2019-04-23T14:50:31.991Z,38.10
2019-04-23T14:52:45.915Z,38.20
2019-04-23T14:54:35.993Z,37.91
2019-04-23T14:56:23.950Z,38.10
2019-04-23T14:57:35.104Z,38.10
2019-04-23T14:58:36.059Z,38.39
2019-04-23T14:59:32.198Z,38.20
2019-04-23T15:00:31.499Z,37.62
2019-04-23T15:01:27.204Z,37.43
2019-04-23T15:02:28.663Z,38.20
2019-04-23T15:03:30.518Z,38.29
2019-04-23T15:04:24.281Z,37.50
2019-04-23T15:05:27.650Z,37.60
2019-04-23T15:06:29.518Z,37.98
2019-04-23T15:07:28.589Z,38.20
2019-04-23T15:08:25.193Z,38.20
2019-04-23T15:10:24.779Z,37.71
2019-04-23T15:11:29.490Z,37.43
2019-04-23T15:12:23.514Z,37.25
2019-04-23T15:13:23.211Z,37.25
2019-04-23T15:14:16.898Z,37.23
2019-04-23T15:15:25.253Z,37.35
2019-04-23T15:16:22.667Z,36.96
2019-04-23T15:17:19.993Z,37.33
2019-04-23T15:18:25.284Z,38.29
2019-04-23T15:19:32.857Z,37.23
2019-04-23T15:20:25.335Z,37.71
2019-04-23T15:22:20.101Z,38.20
2019-04-23T15:24:25.876Z,38.10
2019-04-23T15:28:12.151Z,37.81
2019-04-23T15:29:02.784Z,37.71
2019-04-23T15:30:17.444Z,38.20
2019-04-23T15:32:31.618Z,37.71
2019-04-23T15:33:31.740Z,37.91
2019-04-23T15:34:32.723Z,38.01
2019-04-23T15:36:32.127Z,38.10
2019-04-23T15:38:37.786Z,38.29
2019-04-23T15:39:26.983Z,38.10
2019-04-23T15:40:21.017Z,38.68
2019-04-23T15:41:23.222Z,38.78
2019-04-23T15:42:25.275Z,38.87
2019-04-23T15:43:23.433Z,38.97
2019-04-23T15:45:24.203Z,39.16
2019-04-23T15:46:26.297Z,38.97
2019-04-23T15:49:23.464Z,39.74
2019-04-23T15:50:23.540Z,39.26
2019-04-23T15:51:28.146Z,39.84
2019-04-23T15:52:18.804Z,39.14
2019-04-23T15:53:11.384Z,39.74
2019-04-23T15:54:42.826Z,38.95
2019-04-23T15:55:22.472Z,39.16
2019-04-23T15:56:26.903Z,38.76